createdAt,value
2017-03-05T00:00:18.887Z,53.80
2017-03-05T00:01:18.382Z,53.80
2017-03-05T00:02:21.666Z,53.70
2017-03-05T00:03:16.627Z,53.80
2017-03-05T00:04:19.532Z,53.80
2017-03-05T00:05:16.839Z,53.80
2017-03-05T00:06:18.828Z,53.80
2017-03-05T00:07:16.276Z,53.80
2017-03-05T00:08:16.498Z,53.90
2017-03-05T00:09:21.584Z,53.80
2017-03-05T00:10:21.420Z,53.90
2017-03-05T00:11:17.869Z,53.80
2017-03-05T00:12:16.312Z,53.90
2017-03-05T00:13:26.252Z,53.80
2017-03-05T00:14:16.476Z,53.90
2017-03-05T00:15:20.942Z,53.90
2017-03-05T00:16:28.166Z,53.90
2017-03-05T00:17:23.312Z,53.90
2017-03-05T00:18:22.194Z,54.00
2017-03-05T00:19:16.199Z,54.00
2017-03-05T00:20:22.993Z,is
2017-03-05T00:21:20.168Z,54.00
2017-03-05T00:22:21.413Z,54.00
2017-03-05T00:23:23.134Z,53.90
2017-03-05T00:24:26.548Z,54.10
2017-03-05T00:25:20.504Z,53.90
2017-03-05T00:26:20.408Z,54.10
2017-03-05T00:27:17.755Z,54.00
2017-03-05T00:28:19.199Z,54.00
2017-03-05T00:29:17.377Z,54.00
2017-03-05T00:30:18.901Z,54.00
2017-03-05T00:31:19.320Z,54.10
2017-03-05T00:32:20.685Z,54.00
2017-03-05T00:33:19.539Z,54.00
2017-03-05T00:34:21.185Z,54.00
2017-03-05T00:35:24.058Z,54.20
2017-03-05T00:36:26.422Z,54.10
2017-03-05T00:37:19.877Z,54.20
2017-03-05T00:38:19.882Z,54.20
2017-03-05T00:39:17.501Z,54.20
2017-03-05T00:40:20.307Z,54.20
2017-03-05T00:41:17.369Z,54.20
2017-03-05T00:42:17.146Z,54.20
2017-03-05T00:43:15.619Z,54.20
2017-03-05T00:44:19.619Z,54.20
2017-03-05T00:45:17.783Z,54.10
2017-03-05T00:46:22.960Z,54.30
2017-03-05T00:47:23.222Z,54.20
2017-03-05T00:48:20.878Z,54.30
2017-03-05T00:49:22.143Z,54.20
2017-03-05T00:50:18.229Z,54.30
2017-03-05T00:51:19.875Z,54.20
2017-03-05T00:52:20.907Z,54.20
2017-03-05T00:53:19.483Z,54.30
2017-03-05T00:54:22.093Z,54.20
2017-03-05T00:55:16.900Z,54.20
2017-03-05T00:56:23.599Z,54.40
2017-03-05T00:57:16.759Z,54.20
2017-03-05T00:58:18.494Z,54.20
2017-03-05T00:59:22.739Z,54.20
2017-03-05T01:00:17.382Z,54.30
2017-03-05T01:01:20.255Z,54.30
2017-03-05T01:02:19.548Z,54.30
2017-03-05T01:03:19.350Z,54.30
2017-03-05T01:04:18.639Z,54.20
2017-03-05T01:05:23.269Z,54.40
2017-03-05T01:06:15.991Z,54.30
2017-03-05T01:07:15.069Z,54.30
2017-03-05T01:08:19.897Z,54.20
2017-03-05T01:09:19.802Z,54.30
2017-03-05T01:10:17.865Z,54.30
2017-03-05T01:11:17.768Z,54.30
2017-03-05T01:12:18.902Z,54.20
2017-03-05T01:13:20.242Z,54.30
2017-03-05T01:14:17.351Z,54.40
2017-03-05T01:15:24.557Z,54.30
2017-03-05T01:16:17.040Z,54.20
2017-03-05T01:17:18.530Z,54.40
2017-03-05T01:18:16.893Z,54.30
2017-03-05T01:19:15.984Z,is
2017-03-05T01:20:15.683Z,54.40
2017-03-05T01:21:20.607Z,54.30
2017-03-05T01:22:16.639Z,54.30
2017-03-05T01:23:22.261Z,54.30
2017-03-05T01:24:19.369Z,54.40
2017-03-05T01:25:16.250Z,54.20
2017-03-05T01:26:18.700Z,54.20
2017-03-05T01:27:19.934Z,54.30
2017-03-05T01:28:20.250Z,54.30
2017-03-05T01:29:16.570Z,54.30
2017-03-05T01:30:16.741Z,is
2017-03-05T01:31:26.415Z,54.30
2017-03-05T01:32:17.822Z,54.20
2017-03-05T01:33:19.467Z,54.30
2017-03-05T01:34:19.986Z,54.30
2017-03-05T01:35:19.178Z,54.40
2017-03-05T01:36:17.347Z,54.30
2017-03-05T01:37:16.322Z,54.30
2017-03-05T01:38:24.727Z,54.30
2017-03-05T01:39:18.588Z,54.30
2017-03-05T01:40:25.355Z,54.30
2017-03-05T01:41:22.033Z,is
2017-03-05T01:42:22.277Z,54.30
2017-03-05T01:43:25.991Z,54.40
2017-03-05T01:44:20.676Z,54.30
2017-03-05T01:45:18.123Z,54.50
2017-03-05T01:46:16.696Z,54.40
2017-03-05T01:47:22.494Z,54.40
2017-03-05T01:48:17.549Z,54.50
2017-03-05T01:49:20.404Z,54.60
2017-03-05T01:50:15.183Z,54.60
2017-03-05T01:51:24.925Z,54.40
2017-03-05T01:52:18.685Z,54.50
2017-03-05T01:53:25.962Z,54.50
2017-03-05T01:54:16.407Z,54.50
2017-03-05T01:55:16.692Z,54.40
2017-03-05T01:56:17.234Z,54.50
2017-03-05T01:57:16.784Z,54.40
2017-03-05T01:58:22.576Z,54.50
2017-03-05T01:59:18.634Z,54.50
2017-03-05T02:00:12.502Z,is
2017-03-05T02:01:17.829Z,54.50
2017-03-05T02:02:17.529Z,54.50
2017-03-05T02:03:17.129Z,54.50
2017-03-05T02:04:15.394Z,54.50
2017-03-05T02:05:17.175Z,54.60
2017-03-05T02:06:18.072Z,54.60
2017-03-05T02:07:20.537Z,54.60
2017-03-05T02:08:21.977Z,54.50
2017-03-05T02:09:17.009Z,54.60
2017-03-05T02:10:22.197Z,54.60
2017-03-05T02:11:19.950Z,54.60
2017-03-05T02:12:18.117Z,54.60
2017-03-05T02:13:16.485Z,54.60
2017-03-05T02:14:16.696Z,54.40
2017-03-05T02:15:16.347Z,54.60
2017-03-05T02:16:16.215Z,54.60
2017-03-05T02:17:13.134Z,is
2017-03-05T02:18:22.508Z,54.60
2017-03-05T02:19:21.648Z,54.60
2017-03-05T02:20:20.018Z,54.70
2017-03-05T02:21:17.149Z,54.60
2017-03-05T02:22:22.488Z,is
2017-03-05T02:23:32.647Z,54.70
2017-03-05T02:24:28.412Z,54.70
2017-03-05T02:25:37.238Z,53.90
2017-03-05T02:26:28.556Z,54.70
2017-03-05T02:27:27.794Z,55.10
2017-03-05T02:28:27.790Z,54.70
2017-03-05T02:29:22.955Z,54.60
2017-03-05T02:30:20.296Z,54.70
2017-03-05T02:31:21.633Z,54.80
2017-03-05T02:32:19.491Z,54.70
2017-03-05T02:33:16.407Z,54.60
2017-03-05T02:34:20.427Z,54.60
2017-03-05T02:35:20.026Z,54.70
2017-03-05T02:36:21.263Z,54.80
2017-03-05T02:37:19.229Z,54.70
2017-03-05T02:38:17.343Z,54.70
2017-03-05T02:39:16.573Z,54.70
2017-03-05T02:40:22.155Z,54.80
2017-03-05T02:41:16.485Z,54.80
2017-03-05T02:42:22.739Z,54.70
2017-03-05T02:43:19.572Z,54.70
2017-03-05T02:44:24.090Z,54.70
2017-03-05T02:45:22.264Z,54.70
2017-03-05T02:46:17.268Z,54.70
2017-03-05T02:47:18.680Z,54.70
2017-03-05T02:48:26.060Z,54.70
2017-03-05T02:49:16.399Z,is
2017-03-05T02:50:19.624Z,54.70
2017-03-05T02:51:17.275Z,54.70
2017-03-05T02:52:20.765Z,54.70
2017-03-05T02:53:17.097Z,54.70
2017-03-05T02:54:18.628Z,54.80
2017-03-05T02:55:17.303Z,54.80
2017-03-05T02:56:19.973Z,54.70
2017-03-05T02:57:16.562Z,54.70
2017-03-05T02:58:16.620Z,54.70
2017-03-05T02:59:17.413Z,54.80
2017-03-05T03:00:17.747Z,54.80
2017-03-05T03:01:12.230Z,is
2017-03-05T03:02:18.688Z,54.70
2017-03-05T03:03:20.025Z,54.80
2017-03-05T03:04:17.575Z,54.90
2017-03-05T03:05:21.987Z,54.90
2017-03-05T03:06:23.898Z,54.90
2017-03-05T03:07:16.061Z,is
2017-03-05T03:08:16.672Z,54.80
2017-03-05T03:09:20.991Z,54.80
2017-03-05T03:10:18.643Z,54.70
2017-03-05T03:11:24.282Z,54.80
2017-03-05T03:12:28.398Z,54.80
2017-03-05T03:13:25.220Z,54.70
2017-03-05T03:14:23.601Z,54.80
2017-03-05T03:15:20.831Z,54.80
2017-03-05T03:16:16.947Z,54.70
2017-03-05T03:17:21.562Z,54.90
2017-03-05T03:18:17.534Z,54.80
2017-03-05T03:19:18.504Z,54.80
2017-03-05T03:20:20.662Z,54.90
2017-03-05T03:21:17.095Z,54.80
2017-03-05T03:22:16.648Z,55.00
2017-03-05T03:23:22.586Z,55.00
2017-03-05T03:24:17.108Z,54.90
2017-03-05T03:25:16.719Z,54.90
2017-03-05T03:26:20.708Z,54.80
2017-03-05T03:27:19.690Z,54.70
2017-03-05T03:28:21.188Z,54.90
2017-03-05T03:29:16.819Z,54.20
2017-03-05T03:30:19.507Z,54.80
2017-03-05T03:31:16.422Z,54.80
2017-03-05T03:32:21.569Z,54.90
2017-03-05T03:33:16.629Z,54.80
2017-03-05T03:34:16.259Z,54.90
2017-03-05T03:35:17.290Z,55.10
2017-03-05T03:36:16.970Z,55.00
2017-03-05T03:37:16.383Z,55.10
2017-03-05T03:38:18.234Z,is
2017-03-05T03:39:16.633Z,55.00
2017-03-05T03:40:22.754Z,55.00
2017-03-05T03:41:23.172Z,55.00
2017-03-05T03:42:16.931Z,55.00
2017-03-05T03:43:18.578Z,55.10
2017-03-05T03:44:17.561Z,55.00
2017-03-05T03:45:17.718Z,54.90
2017-03-05T03:46:16.450Z,55.00
2017-03-05T03:47:15.639Z,55.00
2017-03-05T03:48:16.680Z,55.00
2017-03-05T03:49:20.261Z,54.90
2017-03-05T03:50:22.992Z,55.00
2017-03-05T03:51:16.280Z,54.90
2017-03-05T03:52:17.473Z,55.00
2017-03-05T03:53:16.706Z,55.10
2017-03-05T03:54:18.043Z,55.00
2017-03-05T03:55:21.952Z,55.10
2017-03-05T03:56:21.234Z,55.10
2017-03-05T03:57:21.451Z,55.10
2017-03-05T03:58:18.175Z,55.10
2017-03-05T03:59:17.875Z,55.00
2017-03-05T04:00:16.640Z,55.20
2017-03-05T04:01:13.589Z,is
2017-03-05T04:02:21.892Z,55.00
2017-03-05T04:03:26.095Z,55.00
2017-03-05T04:04:21.840Z,55.10
2017-03-05T04:05:19.149Z,55.10
2017-03-05T04:06:16.580Z,55.10
2017-03-05T04:07:16.193Z,55.20
2017-03-05T04:08:16.998Z,55.10
2017-03-05T04:09:18.625Z,54.50
2017-03-05T04:10:16.318Z,55.10
2017-03-05T04:11:25.671Z,55.00
2017-03-05T04:12:18.381Z,55.20
2017-03-05T04:13:22.280Z,55.20
2017-03-05T04:14:17.575Z,55.10
2017-03-05T04:15:16.800Z,55.00
2017-03-05T04:16:15.337Z,55.10
2017-03-05T04:17:18.520Z,55.10
2017-03-05T04:18:17.812Z,55.10
2017-03-05T04:19:21.401Z,55.10
2017-03-05T04:20:17.623Z,55.10
2017-03-05T04:21:16.502Z,55.10
2017-03-05T04:22:23.470Z,55.10
2017-03-05T04:23:16.632Z,55.00
2017-03-05T04:24:20.618Z,55.20
2017-03-05T04:25:16.632Z,55.00
2017-03-05T04:26:16.631Z,55.10
2017-03-05T04:27:18.491Z,54.90
2017-03-05T04:28:16.928Z,55.10
2017-03-05T04:29:21.579Z,55.10
2017-03-05T04:30:21.481Z,55.10
2017-03-05T04:31:15.618Z,55.10
2017-03-05T04:32:19.633Z,55.10
2017-03-05T04:33:19.557Z,55.10
2017-03-05T04:34:20.442Z,55.10
2017-03-05T04:35:17.093Z,55.00
2017-03-05T04:36:15.484Z,55.00
2017-03-05T04:37:19.691Z,55.00
2017-03-05T04:38:16.796Z,55.10
2017-03-05T04:39:20.728Z,55.20
2017-03-05T04:40:22.219Z,55.10
2017-03-05T04:41:25.556Z,55.20
2017-03-05T04:42:22.706Z,55.20
2017-03-05T04:43:19.836Z,55.20
2017-03-05T04:44:16.975Z,55.20
2017-03-05T04:45:16.470Z,55.10
2017-03-05T04:46:22.320Z,55.20
2017-03-05T04:47:18.023Z,55.10
2017-03-05T04:48:19.258Z,55.20
2017-03-05T04:49:21.313Z,55.20
2017-03-05T04:50:19.888Z,55.10
2017-03-05T04:51:16.682Z,55.10
2017-03-05T04:52:22.452Z,54.70
2017-03-05T04:53:20.581Z,55.20
2017-03-05T04:54:12.952Z,is
2017-03-05T04:55:20.153Z,55.20
2017-03-05T04:56:19.671Z,55.20
2017-03-05T04:57:17.361Z,55.20
2017-03-05T04:58:21.073Z,55.20
2017-03-05T04:59:16.609Z,55.10
2017-03-05T05:00:26.719Z,55.20
2017-03-05T05:01:20.072Z,55.10
2017-03-05T05:02:19.976Z,55.20
2017-03-05T05:03:18.958Z,55.00
2017-03-05T05:04:18.096Z,55.20
2017-03-05T05:05:16.312Z,55.20
2017-03-05T05:06:18.984Z,55.10
2017-03-05T05:07:12.330Z,is
2017-03-05T05:08:20.021Z,55.20
2017-03-05T05:09:16.801Z,55.10
2017-03-05T05:10:20.238Z,55.10
2017-03-05T05:11:18.299Z,55.10
2017-03-05T05:12:18.923Z,55.20
2017-03-05T05:13:17.525Z,55.10
2017-03-05T05:14:17.158Z,55.20
2017-03-05T05:15:23.083Z,55.10
2017-03-05T05:16:16.804Z,55.00
2017-03-05T05:17:19.265Z,55.20
2017-03-05T05:18:17.429Z,55.20
2017-03-05T05:19:22.148Z,55.20
2017-03-05T05:20:17.391Z,55.10
2017-03-05T05:21:18.065Z,55.10
2017-03-05T05:22:17.561Z,55.20
2017-03-05T05:23:14.909Z,55.10
2017-03-05T05:24:17.332Z,55.10
2017-03-05T05:25:23.421Z,55.20
2017-03-05T05:26:20.254Z,55.00
2017-03-05T05:27:19.543Z,55.20
2017-03-05T05:28:16.580Z,55.20
2017-03-05T05:29:18.329Z,55.20
2017-03-05T05:30:20.794Z,55.20
2017-03-05T05:31:11.620Z,is
2017-03-05T05:32:19.480Z,55.20
2017-03-05T05:33:22.309Z,55.20
2017-03-05T05:34:20.619Z,55.00
2017-03-05T05:35:21.549Z,55.20
2017-03-05T05:36:19.102Z,55.20
2017-03-05T05:37:15.828Z,55.20
2017-03-05T05:38:19.831Z,55.10
2017-03-05T05:39:19.024Z,55.20
2017-03-05T05:40:19.946Z,55.20
2017-03-05T05:41:20.365Z,55.30
2017-03-05T05:42:16.391Z,55.20
2017-03-05T05:43:19.763Z,55.20
2017-03-05T05:44:19.755Z,55.20
2017-03-05T05:45:18.036Z,55.20
2017-03-05T05:46:23.779Z,55.10
2017-03-05T05:47:21.844Z,55.30
2017-03-05T05:48:18.367Z,55.20
2017-03-05T05:49:20.525Z,55.30
2017-03-05T05:50:19.508Z,55.20
2017-03-05T05:51:17.112Z,55.30
2017-03-05T05:52:23.926Z,55.30
2017-03-05T05:53:20.041Z,55.30
2017-03-05T05:54:22.023Z,55.40
2017-03-05T05:55:16.368Z,55.30
2017-03-05T05:56:18.834Z,55.30
2017-03-05T05:57:24.581Z,55.30
2017-03-05T05:58:18.133Z,55.30
2017-03-05T05:59:21.012Z,55.30
2017-03-05T06:00:15.689Z,55.20
2017-03-05T06:01:14.147Z,55.20
2017-03-05T06:02:15.821Z,55.20
2017-03-05T06:03:14.790Z,is
2017-03-05T06:04:23.222Z,55.40
2017-03-05T06:05:20.948Z,55.50
2017-03-05T06:06:22.872Z,55.40
2017-03-05T06:07:21.860Z,55.20
2017-03-05T06:08:25.987Z,55.20
2017-03-05T06:09:26.714Z,55.20
2017-03-05T06:10:19.045Z,55.40
2017-03-05T06:11:18.740Z,55.10
2017-03-05T06:12:17.313Z,55.20
2017-03-05T06:13:23.079Z,55.20
2017-03-05T06:14:17.253Z,55.40
2017-03-05T06:15:16.955Z,55.30
2017-03-05T06:16:18.161Z,55.20
2017-03-05T06:17:17.174Z,is
2017-03-05T06:18:19.001Z,55.40
2017-03-05T06:19:22.071Z,55.20
2017-03-05T06:20:19.420Z,55.30
2017-03-05T06:21:18.505Z,is
2017-03-05T06:22:16.170Z,55.50
2017-03-05T06:23:18.622Z,55.30
2017-03-05T06:24:20.166Z,55.30
2017-03-05T06:25:23.153Z,54.60
2017-03-05T06:26:16.719Z,55.20
2017-03-05T06:27:26.742Z,55.40
2017-03-05T06:28:22.463Z,55.20
2017-03-05T06:29:22.864Z,55.40
2017-03-05T06:30:28.884Z,55.30
2017-03-05T06:31:29.029Z,55.20
2017-03-05T06:32:26.864Z,55.30
2017-03-05T06:33:25.931Z,55.30
2017-03-05T06:34:26.843Z,55.20
2017-03-05T06:35:20.146Z,55.40
2017-03-05T06:36:20.049Z,55.50
2017-03-05T06:37:18.828Z,55.40
2017-03-05T06:38:15.969Z,55.40
2017-03-05T06:39:16.283Z,55.20
2017-03-05T06:40:23.764Z,55.30
2017-03-05T06:41:17.191Z,55.20
2017-03-05T06:42:22.459Z,55.40
2017-03-05T06:43:18.156Z,55.40
2017-03-05T06:44:19.494Z,55.20
2017-03-05T06:45:19.910Z,55.20
2017-03-05T06:46:19.406Z,55.20
2017-03-05T06:47:17.321Z,55.30
2017-03-05T06:48:15.633Z,55.20
2017-03-05T06:49:19.838Z,55.30
2017-03-05T06:50:16.848Z,55.40
2017-03-05T06:51:16.473Z,55.30
2017-03-05T06:52:16.890Z,55.50
2017-03-05T06:53:18.433Z,55.20
2017-03-05T06:54:13.323Z,55.30
2017-03-05T06:55:14.457Z,55.40
2017-03-05T06:56:18.559Z,55.40
2017-03-05T06:57:17.746Z,55.40
2017-03-05T06:58:20.928Z,55.40
2017-03-05T06:59:16.678Z,55.20
2017-03-05T07:00:16.472Z,55.40
2017-03-05T07:01:17.418Z,55.30
2017-03-05T07:02:17.211Z,55.40
2017-03-05T07:03:19.530Z,55.40
2017-03-05T07:04:22.161Z,55.40
2017-03-05T07:05:18.932Z,55.30
2017-03-05T07:06:18.427Z,55.30
2017-03-05T07:07:17.836Z,55.30
2017-03-05T07:08:18.750Z,55.20
2017-03-05T07:09:23.979Z,55.10
2017-03-05T07:10:16.919Z,55.20
2017-03-05T07:11:21.229Z,55.10
2017-03-05T07:12:21.134Z,55.20
2017-03-05T07:13:16.651Z,55.20
2017-03-05T07:14:17.668Z,55.20
2017-03-05T07:15:18.902Z,55.10
2017-03-05T07:16:22.757Z,55.10
2017-03-05T07:17:16.711Z,55.20
2017-03-05T07:18:16.979Z,55.10
2017-03-05T07:19:18.625Z,55.20
2017-03-05T07:20:16.402Z,55.10
2017-03-05T07:21:17.307Z,55.20
2017-03-05T07:22:17.930Z,55.00
2017-03-05T07:23:16.402Z,55.10
2017-03-05T07:24:23.427Z,55.20
2017-03-05T07:25:22.092Z,55.20
2017-03-05T07:26:21.337Z,55.10
2017-03-05T07:27:18.400Z,55.20
2017-03-05T07:28:20.469Z,is
2017-03-05T07:29:14.806Z,is
2017-03-05T07:30:21.494Z,55.70
2017-03-05T07:31:16.835Z,55.10
2017-03-05T07:32:17.798Z,55.00
2017-03-05T07:33:19.238Z,55.10
2017-03-05T07:34:16.380Z,55.00
2017-03-05T07:35:22.178Z,55.00
2017-03-05T07:36:18.647Z,is
2017-03-05T07:37:22.208Z,55.00
2017-03-05T07:38:21.137Z,55.10
2017-03-05T07:39:16.047Z,is
2017-03-05T07:40:18.163Z,55.00
2017-03-05T07:41:22.877Z,55.00
2017-03-05T07:42:18.792Z,54.50
2017-03-05T07:43:17.085Z,54.90
2017-03-05T07:44:19.320Z,55.00
2017-03-05T07:45:16.376Z,54.90
2017-03-05T07:46:17.695Z,54.90
2017-03-05T07:47:22.701Z,55.10
2017-03-05T07:48:18.941Z,55.00
2017-03-05T07:49:15.521Z,55.10
2017-03-05T07:50:23.254Z,54.90
2017-03-05T07:51:22.482Z,55.00
2017-03-05T07:52:19.685Z,54.90
2017-03-05T07:53:17.234Z,54.90
2017-03-05T07:54:16.115Z,54.90
2017-03-05T07:55:14.792Z,55.00
2017-03-05T07:56:17.561Z,55.10
2017-03-05T07:57:19.414Z,55.10
2017-03-05T07:58:16.959Z,55.00
2017-03-05T07:59:16.693Z,55.00
2017-03-05T08:00:16.159Z,55.10
2017-03-05T08:01:18.873Z,54.90
2017-03-05T08:02:17.487Z,55.00
2017-03-05T08:03:19.868Z,55.10
2017-03-05T08:04:18.749Z,55.00
2017-03-05T08:05:17.427Z,55.10
2017-03-05T08:06:15.589Z,55.00
2017-03-05T08:07:24.863Z,55.10
2017-03-05T08:08:17.651Z,55.10
2017-03-05T08:09:22.084Z,55.00
2017-03-05T08:10:20.227Z,55.10
2017-03-05T08:11:17.775Z,55.20
2017-03-05T08:12:17.832Z,55.20
2017-03-05T08:13:16.749Z,55.20
2017-03-05T08:14:17.285Z,55.20
2017-03-05T08:15:16.168Z,55.20
2017-03-05T08:16:20.886Z,55.20
2017-03-05T08:17:23.276Z,55.20
2017-03-05T08:18:20.284Z,55.20
2017-03-05T08:19:25.171Z,55.20
2017-03-05T08:20:19.174Z,55.20
2017-03-05T08:21:18.926Z,55.20
2017-03-05T08:22:18.063Z,55.20
2017-03-05T08:23:15.611Z,is
2017-03-05T08:24:20.125Z,55.20
2017-03-05T08:25:17.469Z,55.20
2017-03-05T08:26:19.115Z,55.20
2017-03-05T08:27:14.924Z,55.20
2017-03-05T08:28:29.472Z,55.20
2017-03-05T08:29:15.247Z,55.30
2017-03-05T08:30:16.868Z,55.50
2017-03-05T08:31:19.768Z,55.30
2017-03-05T08:32:15.468Z,55.50
2017-03-05T08:33:21.316Z,55.50
2017-03-05T08:34:21.426Z,55.30
2017-03-05T08:35:17.953Z,55.40
2017-03-05T08:36:19.393Z,55.50
2017-03-05T08:37:16.015Z,55.40
2017-03-05T08:38:16.674Z,55.60
2017-03-05T08:39:24.434Z,55.40
2017-03-05T08:40:18.092Z,55.50
2017-03-05T08:41:16.497Z,55.40
2017-03-05T08:42:18.926Z,55.40
2017-03-05T08:43:23.110Z,55.60
2017-03-05T08:44:17.607Z,55.60
2017-03-05T08:45:18.537Z,55.90
2017-03-05T08:46:23.461Z,56.30
2017-03-05T08:47:16.185Z,56.30
2017-03-05T08:48:17.278Z,56.60
2017-03-05T08:49:17.237Z,55.90
2017-03-05T08:50:21.797Z,55.70
2017-03-05T08:51:19.400Z,55.80
2017-03-05T08:52:16.560Z,54.70
2017-03-05T08:53:16.835Z,54.00
2017-03-05T08:54:16.145Z,54.60
2017-03-05T08:55:17.046Z,55.00
2017-03-05T08:56:15.005Z,54.80
2017-03-05T08:57:14.531Z,54.70
2017-03-05T08:58:18.222Z,54.90
2017-03-05T08:59:16.182Z,54.70
2017-03-05T09:00:18.032Z,54.70
2017-03-05T09:01:22.250Z,54.70
2017-03-05T09:02:19.708Z,54.30
2017-03-05T09:03:25.939Z,54.70
2017-03-05T09:04:28.388Z,54.50
2017-03-05T09:05:18.788Z,54.00
2017-03-05T09:06:20.048Z,54.00
2017-03-05T09:07:16.446Z,53.70
2017-03-05T09:08:16.862Z,53.70
2017-03-05T09:09:21.124Z,53.40
2017-03-05T09:10:19.232Z,52.90
2017-03-05T09:11:16.862Z,53.00
2017-03-05T09:12:14.996Z,53.10
2017-03-05T09:13:14.340Z,53.00
2017-03-05T09:14:19.880Z,53.20
2017-03-05T09:15:15.890Z,is
2017-03-05T09:16:20.811Z,53.60
2017-03-05T09:17:22.831Z,53.70
2017-03-05T09:18:15.196Z,53.50
2017-03-05T09:19:22.392Z,53.60
2017-03-05T09:20:16.482Z,53.60
2017-03-05T09:21:16.345Z,53.70
2017-03-05T09:22:22.739Z,53.70
2017-03-05T09:23:21.854Z,53.70
2017-03-05T09:24:16.158Z,53.50
2017-03-05T09:25:16.357Z,53.40
2017-03-05T09:26:14.702Z,53.30
2017-03-05T09:27:16.873Z,53.10
2017-03-05T09:28:16.035Z,52.90
2017-03-05T09:29:20.191Z,53.10
2017-03-05T09:30:13.235Z,is
2017-03-05T09:31:17.288Z,is
2017-03-05T09:32:24.616Z,53.10
2017-03-05T09:33:22.606Z,53.00
2017-03-05T09:34:16.952Z,52.90
2017-03-05T09:35:19.927Z,52.80
2017-03-05T09:36:17.887Z,52.80
2017-03-05T09:37:25.471Z,52.90
2017-03-05T09:38:17.901Z,52.80
2017-03-05T09:39:18.564Z,52.80
2017-03-05T09:40:15.664Z,is
2017-03-05T09:41:18.025Z,52.80
2017-03-05T09:42:17.722Z,52.80
2017-03-05T09:43:16.199Z,52.70
2017-03-05T09:44:17.068Z,52.70
2017-03-05T09:45:22.397Z,52.70
2017-03-05T09:46:16.012Z,52.70
2017-03-05T09:47:16.273Z,52.70
2017-03-05T09:48:16.745Z,52.60
2017-03-05T09:49:26.480Z,52.60
2017-03-05T09:50:14.098Z,52.70
2017-03-05T09:51:16.194Z,52.60
2017-03-05T09:52:23.168Z,52.60
2017-03-05T09:53:20.366Z,52.50
2017-03-05T09:54:18.123Z,52.40
2017-03-05T09:55:22.012Z,52.40
2017-03-05T09:56:19.876Z,52.50
2017-03-05T09:57:16.981Z,52.40
2017-03-05T09:58:20.105Z,52.40
2017-03-05T09:59:16.416Z,52.50
2017-03-05T10:00:16.576Z,52.80
2017-03-05T10:01:15.364Z,52.50
2017-03-05T10:02:15.481Z,52.40
2017-03-05T10:03:19.927Z,52.00
2017-03-05T10:04:15.677Z,51.80
2017-03-05T10:05:16.153Z,51.60
2017-03-05T10:06:41.120Z,52.00
2017-03-05T10:07:23.889Z,52.00
2017-03-05T10:08:17.158Z,51.90
2017-03-05T10:09:30.614Z,52.00
2017-03-05T10:10:19.689Z,52.20
2017-03-05T10:11:22.320Z,52.10
2017-03-05T10:12:22.757Z,is
2017-03-05T10:13:14.265Z,52.20
2017-03-05T10:14:21.914Z,is
2017-03-05T10:15:15.637Z,52.10
2017-03-05T10:16:15.313Z,52.10
2017-03-05T10:17:17.319Z,52.20
2017-03-05T10:18:24.646Z,52.10
2017-03-05T10:19:19.737Z,52.00
2017-03-05T10:20:23.738Z,52.10
2017-03-05T10:21:14.221Z,52.00
2017-03-05T10:22:16.424Z,52.00
2017-03-05T10:23:21.113Z,52.00
2017-03-05T10:24:21.354Z,51.90
2017-03-05T10:25:16.176Z,51.90
2017-03-05T10:26:22.121Z,52.10
2017-03-05T10:27:16.212Z,51.90
2017-03-05T10:28:19.174Z,51.90
2017-03-05T10:29:15.305Z,51.90
2017-03-05T10:30:18.179Z,51.90
2017-03-05T10:31:17.777Z,51.90
2017-03-05T10:32:15.844Z,51.90
2017-03-05T10:33:13.401Z,51.90
2017-03-05T10:34:27.669Z,51.90
2017-03-05T10:35:15.145Z,51.80
2017-03-05T10:36:23.169Z,52.00
2017-03-05T10:37:22.879Z,52.00
2017-03-05T10:38:28.708Z,51.90
2017-03-05T10:39:22.612Z,51.90
2017-03-05T10:40:18.121Z,51.80
2017-03-05T10:41:24.200Z,51.80
2017-03-05T10:42:21.790Z,51.90
2017-03-05T10:43:27.500Z,51.90
2017-03-05T10:44:17.238Z,51.90
2017-03-05T10:45:17.967Z,51.90
2017-03-05T10:46:20.778Z,51.80
2017-03-05T10:47:22.060Z,51.80
2017-03-05T10:48:15.647Z,51.90
2017-03-05T10:49:26.613Z,51.70
2017-03-05T10:50:19.701Z,51.70
2017-03-05T10:51:16.591Z,51.80
2017-03-05T10:52:17.291Z,51.70
2017-03-05T10:53:21.112Z,51.70
2017-03-05T10:54:18.560Z,51.70
2017-03-05T10:55:18.178Z,51.70
2017-03-05T10:56:17.431Z,52.20
2017-03-05T10:57:29.179Z,51.60
2017-03-05T10:58:35.394Z,51.60
2017-03-05T10:59:26.017Z,51.50
2017-03-05T11:00:22.310Z,51.50
2017-03-05T11:01:18.100Z,51.50
2017-03-05T11:02:16.939Z,51.50
2017-03-05T11:03:26.575Z,51.60
2017-03-05T11:04:27.773Z,51.50
2017-03-05T11:05:16.089Z,51.50
2017-03-05T11:06:19.113Z,51.60
2017-03-05T11:07:14.149Z,51.70
2017-03-05T11:08:19.486Z,51.60
2017-03-05T11:09:22.253Z,51.70
2017-03-05T11:10:20.417Z,51.60
2017-03-05T11:11:17.454Z,51.60
2017-03-05T11:12:20.085Z,51.60
2017-03-05T11:13:16.548Z,51.70
2017-03-05T11:14:14.200Z,51.50
2017-03-05T11:15:15.505Z,51.60
2017-03-05T11:16:20.858Z,51.70
2017-03-05T11:17:22.944Z,51.70
2017-03-05T11:18:21.603Z,51.80
2017-03-05T11:19:16.901Z,51.70
2017-03-05T11:20:14.449Z,51.70
2017-03-05T11:21:21.071Z,51.80
2017-03-05T11:22:18.459Z,51.80
2017-03-05T11:23:13.904Z,51.70
2017-03-05T11:24:15.609Z,51.80
2017-03-05T11:25:19.598Z,51.70
2017-03-05T11:26:20.739Z,51.90
2017-03-05T11:27:15.422Z,51.80
2017-03-05T11:28:22.389Z,51.80
2017-03-05T11:29:18.713Z,51.80
2017-03-05T11:30:23.323Z,51.80
2017-03-05T11:31:12.892Z,is
2017-03-05T11:32:17.198Z,51.80
2017-03-05T11:33:20.484Z,51.80
2017-03-05T11:34:16.439Z,51.80
2017-03-05T11:35:16.708Z,51.80
2017-03-05T11:36:20.301Z,51.80
2017-03-05T11:37:17.000Z,51.80
2017-03-05T11:38:12.681Z,51.90
2017-03-05T11:39:19.098Z,51.90
2017-03-05T11:40:12.241Z,is
2017-03-05T11:41:18.085Z,is
2017-03-05T11:42:16.964Z,51.90
2017-03-05T11:43:14.720Z,51.80
2017-03-05T11:44:17.174Z,52.10
2017-03-05T11:45:16.667Z,52.00
2017-03-05T11:46:21.853Z,52.00
2017-03-05T11:47:18.015Z,51.90
2017-03-05T11:48:16.561Z,51.90
2017-03-05T11:49:15.404Z,51.90
2017-03-05T11:50:18.561Z,51.80
2017-03-05T11:51:15.187Z,51.50
2017-03-05T11:52:14.682Z,51.50
2017-03-05T11:53:14.896Z,51.70
2017-03-05T11:54:16.974Z,51.60
2017-03-05T11:55:18.994Z,51.50
2017-03-05T11:56:20.437Z,51.70
2017-03-05T11:57:17.326Z,51.70
2017-03-05T11:58:17.614Z,51.60
2017-03-05T11:59:12.924Z,51.80
2017-03-05T12:00:15.665Z,is
2017-03-05T12:01:16.818Z,51.80
2017-03-05T12:02:14.552Z,51.80
2017-03-05T12:03:13.058Z,51.80
2017-03-05T12:04:19.445Z,51.80
2017-03-05T12:05:19.079Z,51.80
2017-03-05T12:06:16.730Z,51.90
2017-03-05T12:07:17.555Z,51.80
2017-03-05T12:08:13.508Z,51.80
2017-03-05T12:09:18.185Z,51.80
2017-03-05T12:10:16.144Z,51.90
2017-03-05T12:11:13.899Z,is
2017-03-05T12:12:12.821Z,51.80
2017-03-05T12:13:17.274Z,51.70
2017-03-05T12:14:13.718Z,51.70
2017-03-05T12:15:14.670Z,51.70
2017-03-05T12:16:18.751Z,51.70
2017-03-05T12:17:13.842Z,51.80
2017-03-05T12:18:12.929Z,51.80
2017-03-05T12:19:15.617Z,51.80
2017-03-05T12:20:11.823Z,51.70
2017-03-05T12:21:12.187Z,51.70
2017-03-05T12:22:12.649Z,51.70
2017-03-05T12:23:13.987Z,51.70
2017-03-05T12:24:11.775Z,51.70
2017-03-05T12:25:18.421Z,51.70
2017-03-05T12:26:12.783Z,51.80
2017-03-05T12:27:12.191Z,51.70
2017-03-05T12:28:13.021Z,51.60
2017-03-05T12:29:13.421Z,51.80
2017-03-05T12:30:16.804Z,51.80
2017-03-05T12:31:17.799Z,51.70
2017-03-05T12:32:13.016Z,51.80
2017-03-05T12:33:13.406Z,51.70
2017-03-05T12:34:09.493Z,is
2017-03-05T12:35:15.544Z,51.80
2017-03-05T12:36:13.880Z,51.80
2017-03-05T12:37:12.420Z,51.80
2017-03-05T12:38:12.326Z,51.90
2017-03-05T12:39:12.038Z,51.80
2017-03-05T12:40:13.408Z,51.90
2017-03-05T12:41:12.836Z,51.90
2017-03-05T12:42:12.269Z,51.80
2017-03-05T12:43:11.861Z,51.90
2017-03-05T12:44:14.042Z,51.90
2017-03-05T12:45:12.101Z,51.90
2017-03-05T12:46:12.210Z,51.10
2017-03-05T12:47:13.176Z,46.90
2017-03-05T12:48:15.953Z,48.10
2017-03-05T12:49:12.451Z,48.40
2017-03-05T12:50:13.164Z,50.00
2017-03-05T12:51:13.447Z,49.40
2017-03-05T12:52:15.096Z,50.20
2017-03-05T12:53:13.849Z,50.50
2017-03-05T12:54:12.886Z,50.40
2017-03-05T12:55:12.651Z,50.50
2017-03-05T12:56:13.244Z,50.60